Time;durP1;ratioP1;P1;durP2;ratioP2;P2;SDS_P1;SDS_P2;PMS_P1;PMS_P2;Temp;Humidity;BMP_temperature;BMP_pressure;BME280_temperature;BME280_humidity;BME280_pressure;Samples;Min_cycle;Max_cycle;Signal;HPM_P1;HPM_P2
2022/01/18 00:01:57;;;;;;;14.30;6.43;;;;;;;;;;5054967;28;20025;-78
2022/01/18 00:04:24;;;;;;;13.02;5.70;;;;;;;;;;5049503;28;20075;-78
2022/01/18 00:06:52;;;;;;;12.50;4.53;;;;;;;;;;5052374;28;20017;-78
2022/01/18 00:09:21;;;;;;;11.20;5.43;;;;;;;;;;5055765;28;20052;-78
2022/01/18 00:11:58;;;;;;;12.38;5.47;;;;;;;;;;5074365;28;20080;-78
2022/01/18 00:14:28;;;;;;;10.15;5.25;;;;;;;;;;5065604;28;20066;-78
2022/01/18 00:19:41;;;;;;;12.95;6.38;;;;;;;;;;5056872;28;20735;-79
2022/01/18 00:22:11;;;;;;;14.32;5.18;;;;;;;;;;5053499;28;20028;-78
2022/01/18 00:24:39;;;;;;;12.18;5.50;;;;;;;;;;5057308;28;20115;-79
2022/01/18 00:27:09;;;;;;;13.07;5.70;;;;;;;;;;5073772;28;20528;-79
2022/01/18 00:29:39;;;;;;;9.73;5.22;;;;;;;;;;5062957;28;20080;-78
2022/01/18 00:32:30;;;;;;;15.82;6.95;;;;;;;;;;5056249;28;20919;-78
2022/01/18 00:34:57;;;;;;;11.68;4.90;;;;;;;;;;5055870;28;20041;-79
2022/01/18 00:37:38;;;;;;;16.20;6.93;;;;;;;;;;5057729;28;20028;-78
2022/01/18 00:40:05;;;;;;;14.18;5.05;;;;;;;;;;5053292;28;20040;-78
2022/01/18 00:42:31;;;;;;;17.25;6.13;;;;;;;;;;5053242;28;20043;-78
2022/01/18 00:44:57;;;;;;;15.85;6.03;;;;;;;;;;5051715;28;20516;-78
2022/01/18 00:47:23;;;;;;;14.77;5.13;;;;;;;;;;5057068;28;20029;-78
2022/01/18 00:49:57;;;;;;;12.85;5.57;;;;;;;;;;5051707;28;20052;-79
2022/01/18 00:52:23;;;;;;;21.77;8.70;;;;;;;;;;5054864;28;20082;-78
2022/01/18 00:54:49;;;;;;;10.70;6.38;;;;;;;;;;5052629;28;20126;-78
2022/01/18 00:57:15;;;;;;;15.80;6.70;;;;;;;;;;5057578;28;20556;-78
2022/01/18 00:59:42;;;;;;;14.48;6.00;;;;;;;;;;5050531;28;20029;-78
2022/01/18 01:02:09;;;;;;;14.25;6.35;;;;;;;;;;5052032;28;20179;-78
2022/01/18 01:04:40;;;;;;;12.93;5.57;;;;;;;;;;5051467;28;20044;-79
2022/01/18 01:07:06;;;;;;;13.15;5.50;;;;;;;;;;5052060;28;20032;-79
2022/01/18 01:09:33;;;;;;;16.17;6.43;;;;;;;;;;5057192;28;20448;-78
2022/01/18 01:11:59;;;;;;;11.30;4.82;;;;;;;;;;5050916;28;20080;-78
2022/01/18 01:14:27;;;;;;;13.85;4.68;;;;;;;;;;5049546;28;20028;-78
2022/01/18 01:17:10;;;;;;;13.30;5.25;;;;;;;;;;5053863;28;20028;-78
2022/01/18 01:33:35;;;;;;;15.50;7.28;;;;;;;;;;5052844;28;20405;-80
2022/01/18 01:36:14;;;;;;;13.45;5.38;;;;;;;;;;5051661;28;20039;-79
2022/01/18 01:44:38;;;;;;;14.75;5.80;;;;;;;;;;5019604;28;20131;-78
2022/01/18 01:47:04;;;;;;;10.88;5.53;;;;;;;;;;5048275;28;20404;-79
2022/01/18 01:49:30;;;;;;;20.75;5.70;;;;;;;;;;5049069;28;20036;-78
2022/01/18 01:51:56;;;;;;;16.60;5.95;;;;;;;;;;5049166;28;20021;-79
2022/01/18 01:54:22;;;;;;;15.23;5.82;;;;;;;;;;5050046;28;20085;-79
2022/01/18 01:56:48;;;;;;;10.38;5.22;;;;;;;;;;5049532;28;20492;-79
2022/01/18 01:59:14;;;;;;;15.18;5.90;;;;;;;;;;5048067;28;20036;-77
2022/01/18 02:01:45;;;;;;;17.73;7.03;;;;;;;;;;5046300;28;20040;-79
2022/01/18 02:04:12;;;;;;;17.80;6.15;;;;;;;;;;5055990;28;20040;-78
2022/01/18 02:06:38;;;;;;;10.85;3.83;;;;;;;;;;5065590;28;20021;-78
2022/01/18 02:09:04;;;;;;;12.32;5.38;;;;;;;;;;5062587;28;20285;-79
2022/01/18 02:11:30;;;;;;;11.90;5.50;;;;;;;;;;5051709;28;20520;-79
2022/01/18 02:13:57;;;;;;;13.55;7.10;;;;;;;;;;5049490;28;20081;-79
2022/01/18 02:21:53;;;;;;;14.25;5.72;;;;;;;;;;5048402;28;20043;-78
2022/01/18 02:24:21;;;;;;;10.30;4.65;;;;;;;;;;5046807;28;20299;-79
2022/01/18 02:26:47;;;;;;;12.73;4.53;;;;;;;;;;5047858;28;20496;-78
2022/01/18 02:29:13;;;;;;;15.73;5.40;;;;;;;;;;5047041;28;20033;-78
2022/01/18 02:31:40;;;;;;;21.23;7.47;;;;;;;;;;5051789;28;20028;-79
2022/01/18 02:34:07;;;;;;;11.88;6.05;;;;;;;;;;5049190;28;20035;-79
2022/01/18 02:36:33;;;;;;;13.88;5.80;;;;;;;;;;5052703;28;20081;-78
2022/01/18 02:38:59;;;;;;;11.93;5.90;;;;;;;;;;5046673;28;20024;-78
2022/01/18 02:41:30;;;;;;;18.27;5.85;;;;;;;;;;5051602;28;20028;-79
2022/01/18 02:43:57;;;;;;;14.55;6.18;;;;;;;;;;5048316;28;20037;-78
2022/01/18 02:46:23;;;;;;;16.67;5.45;;;;;;;;;;5051238;28;20028;-79
2022/01/18 02:48:49;;;;;;;16.63;5.32;;;;;;;;;;5047938;28;20844;-79
2022/01/18 02:51:15;;;;;;;14.77;5.45;;;;;;;;;;5048134;28;20638;-78
2022/01/18 02:54:01;;;;;;;9.82;4.13;;;;;;;;;;5048333;28;20540;-79
2022/01/18 02:56:28;;;;;;;16.08;4.00;;;;;;;;;;5051936;28;20691;-79
2022/01/18 02:59:02;;;;;;;12.98;4.65;;;;;;;;;;5047761;28;20033;-78
2022/01/18 03:04:14;;;;;;;7.72;3.63;;;;;;;;;;5049867;28;20059;-78
2022/01/18 03:06:40;;;;;;;13.45;3.13;;;;;;;;;;5048439;28;20055;-79
2022/01/18 03:09:06;;;;;;;7.65;3.88;;;;;;;;;;5046282;28;20065;-79
2022/01/18 03:11:32;;;;;;;15.48;3.58;;;;;;;;;;5052382;28;20025;-79
2022/01/18 03:13:58;;;;;;;9.30;2.60;;;;;;;;;;5048264;28;20028;-79
2022/01/18 03:16:24;;;;;;;5.47;3.08;;;;;;;;;;5049560;28;20028;-79
2022/01/18 03:18:50;;;;;;;8.73;2.72;;;;;;;;;;5049454;28;20063;-79
2022/01/18 03:21:16;;;;;;;5.75;2.25;;;;;;;;;;5052900;28;20028;-79
2022/01/18 03:23:42;;;;;;;7.30;2.85;;;;;;;;;;5047121;28;20036;-79
2022/01/18 03:26:15;;;;;;;7.18;2.67;;;;;;;;;;5048826;28;20028;-79
2022/01/18 03:28:41;;;;;;;;;;;;;;;;;;5049459;28;20033;-79
2022/01/18 03:31:07;;;;;;;7.35;2.53;;;;;;;;;;5050731;28;19917;-77
2022/01/18 03:33:34;;;;;;;5.95;2.97;;;;;;;;;;5052696;28;20033;-79
2022/01/18 03:36:00;;;;;;;7.95;3.28;;;;;;;;;;5058403;28;20055;-79
2022/01/18 03:38:29;;;;;;;8.13;4.00;;;;;;;;;;5054912;28;20676;-79
2022/01/18 03:40:57;;;;;;;6.20;3.33;;;;;;;;;;5053924;28;20058;-79
2022/01/18 03:43:23;;;;;;;8.93;3.53;;;;;;;;;;5055884;28;20036;-78
2022/01/18 03:45:51;;;;;;;10.27;3.55;;;;;;;;;;5052777;28;20070;-79
2022/01/18 03:48:38;;;;;;;7.63;3.75;;;;;;;;;;5052949;28;20029;-79
2022/01/18 03:51:05;;;;;;;8.73;3.38;;;;;;;;;;5069402;28;20040;-79
2022/01/18 03:53:31;;;;;;;6.22;2.92;;;;;;;;;;5061193;28;20121;-79
2022/01/18 03:55:59;;;;;;;9.80;2.78;;;;;;;;;;5050170;28;20930;-78
2022/01/18 03:58:25;;;;;;;9.50;3.15;;;;;;;;;;5055344;28;20044;-78
2022/01/18 04:00:51;;;;;;;7.15;3.33;;;;;;;;;;5052928;28;20122;-78
2022/01/18 04:03:18;;;;;;;13.02;3.70;;;;;;;;;;5052215;28;20056;-79
2022/01/18 04:05:44;;;;;;;9.15;3.22;;;;;;;;;;5052832;28;20127;-78
2022/01/18 04:08:10;;;;;;;5.68;3.08;;;;;;;;;;5047729;28;20155;-78
2022/01/18 04:10:36;;;;;;;8.25;2.83;;;;;;;;;;5051044;28;20024;-78
2022/01/18 04:13:02;;;;;;;8.77;3.50;;;;;;;;;;5052141;28;20029;-79
2022/01/18 04:15:29;;;;;;;8.32;3.20;;;;;;;;;;5055402;28;20032;-79
2022/01/18 04:26:03;;;;;;;10.93;4.68;;;;;;;;;;5050650;28;20117;-78
2022/01/18 04:28:40;;;;;;;12.77;3.88;;;;;;;;;;5053667;28;20041;-78
2022/01/18 04:31:07;;;;;;;8.90;3.50;;;;;;;;;;5053460;28;20024;-79
2022/01/18 04:33:34;;;;;;;9.63;4.53;;;;;;;;;;5051076;28;20086;-79
2022/01/18 04:36:00;;;;;;;10.20;4.13;;;;;;;;;;5054162;28;20033;-79
2022/01/18 04:38:26;;;;;;;8.00;3.58;;;;;;;;;;5049241;28;20521;-78
2022/01/18 04:40:52;;;;;;;10.38;3.30;;;;;;;;;;5042956;28;20120;-79
2022/01/18 04:48:34;;;;;;;20.90;5.30;;;;;;;;;;5051427;28;20051;-78
2022/01/18 04:51:06;;;;;;;12.18;5.40;;;;;;;;;;5052193;28;20037;-78
2022/01/18 04:53:33;;;;;;;8.63;4.75;;;;;;;;;;5050261;28;20540;-78
2022/01/18 04:56:02;;;;;;;8.07;3.35;;;;;;;;;;5050616;28;20043;-78
2022/01/18 04:58:28;;;;;;;12.27;3.97;;;;;;;;;;5049756;28;20412;-79
2022/01/18 05:00:56;;;;;;;13.88;5.15;;;;;;;;;;5052643;28;20036;-78
2022/01/18 05:03:22;;;;;;;16.17;4.95;;;;;;;;;;5050940;28;20020;-79
2022/01/18 05:05:50;;;;;;;20.00;8.05;;;;;;;;;;5048872;28;20044;-78
2022/01/18 05:08:16;;;;;;;18.75;6.18;;;;;;;;;;5052242;28;20032;-79
2022/01/18 05:10:43;;;;;;;18.83;6.95;;;;;;;;;;5052246;28;20106;-79
2022/01/18 05:13:36;;;;;;;18.63;6.30;;;;;;;;;;5053153;28;20028;-79
2022/01/18 05:16:21;;;;;;;14.77;5.57;;;;;;;;;;5049872;28;20218;-79
2022/01/18 05:19:03;;;;;;;20.98;6.00;;;;;;;;;;5049556;28;20032;-79
2022/01/18 05:21:35;;;;;;;11.30;5.00;;;;;;;;;;5051397;28;20049;-78
2022/01/18 05:24:01;;;;;;;15.38;5.80;;;;;;;;;;5047147;28;20056;-79
2022/01/18 05:26:28;;;;;;;11.65;5.43;;;;;;;;;;5046240;28;20036;-79
2022/01/18 05:28:54;;;;;;;15.02;4.65;;;;;;;;;;5036000;28;20043;-80
2022/01/18 05:31:20;;;;;;;9.68;3.15;;;;;;;;;;5041537;28;20040;-79
2022/01/18 05:33:47;;;;;;;11.25;3.45;;;;;;;;;;5046050;28;20029;-79
2022/01/18 05:36:13;;;;;;;10.10;4.55;;;;;;;;;;5047342;28;20574;-79
2022/01/18 05:38:39;;;;;;;22.25;5.53;;;;;;;;;;5039472;28;20028;-79
2022/01/18 05:41:07;;;;;;;15.25;4.80;;;;;;;;;;5034446;28;20060;-78
2022/01/18 05:43:33;;;;;;;11.35;4.18;;;;;;;;;;5041318;28;21950;-79
2022/01/18 05:45:59;;;;;;;17.42;4.68;;;;;;;;;;5042908;28;20038;-78
2022/01/18 05:48:25;;;;;;;11.27;4.78;;;;;;;;;;5038253;28;20036;-81
2022/01/18 05:50:54;;;;;;;15.35;4.45;;;;;;;;;;5044039;28;20036;-79
2022/01/18 05:53:20;;;;;;;18.80;8.05;;;;;;;;;;5044683;28;20059;-80
2022/01/18 05:55:45;;;;;;;40.47;11.93;;;;;;;;;;5054510;28;20064;-79
2022/01/18 05:58:11;;;;;;;34.80;12.30;;;;;;;;;;5047809;28;20017;-79
2022/01/18 06:00:40;;;;;;;33.70;12.73;;;;;;;;;;5048467;28;20025;-78
2022/01/18 06:03:15;;;;;;;25.48;8.10;;;;;;;;;;5049975;28;20090;-80
2022/01/18 06:08:26;;;;;;;24.70;10.35;;;;;;;;;;5046510;28;20039;-78
2022/01/18 06:10:52;;;;;;;20.13;6.88;;;;;;;;;;5058510;28;20021;-79
2022/01/18 06:13:18;;;;;;;16.23;6.05;;;;;;;;;;5064267;28;20094;-79
2022/01/18 06:15:44;;;;;;;14.70;6.38;;;;;;;;;;5048056;28;20112;-79
2022/01/18 06:18:11;;;;;;;24.45;6.65;;;;;;;;;;5052097;28;20052;-79
2022/01/18 06:20:40;;;;;;;21.60;6.63;;;;;;;;;;5053395;28;20134;-79
2022/01/18 06:23:06;;;;;;;29.30;9.27;;;;;;;;;;5045119;28;20066;-79
2022/01/18 06:25:32;;;;;;;16.90;6.25;;;;;;;;;;5033911;28;20058;-79
2022/01/18 06:27:58;;;;;;;19.83;7.28;;;;;;;;;;5041628;28;20119;-79
2022/01/18 06:30:24;;;;;;;13.23;5.68;;;;;;;;;;5048992;28;20028;-79
2022/01/18 06:32:50;;;;;;;17.88;6.72;;;;;;;;;;5037917;28;20028;-80
2022/01/18 06:35:17;;;;;;;18.45;6.30;;;;;;;;;;5038664;28;20265;-80
2022/01/18 06:37:43;;;;;;;20.50;7.20;;;;;;;;;;5036652;28;20040;-80
2022/01/18 06:40:10;;;;;;;19.20;7.50;;;;;;;;;;5035788;28;20032;-80
2022/01/18 06:42:36;;;;;;;16.05;6.57;;;;;;;;;;5041063;28;20061;-79
2022/01/18 06:45:03;;;;;;;21.65;8.45;;;;;;;;;;5037061;28;20874;-79
2022/01/18 06:47:29;;;;;;;19.33;6.03;;;;;;;;;;5044319;28;20039;-80
2022/01/18 06:49:55;;;;;;;20.25;6.03;;;;;;;;;;5047321;28;20036;-79
2022/01/18 06:52:21;;;;;;;21.98;6.65;;;;;;;;;;5051803;28;20028;-80
2022/01/18 06:54:47;;;;;;;19.20;7.18;;;;;;;;;;5048873;28;20048;-80
2022/01/18 06:57:13;;;;;;;13.63;6.53;;;;;;;;;;5036630;28;20090;-79
2022/01/18 06:59:39;;;;;;;17.98;5.10;;;;;;;;;;5038292;28;21419;-80
2022/01/18 07:02:05;;;;;;;16.13;5.18;;;;;;;;;;5040496;28;20032;-80
2022/01/18 07:04:31;;;;;;;14.70;5.53;;;;;;;;;;5039047;28;20048;-79
2022/01/18 07:06:58;;;;;;;17.08;6.85;;;;;;;;;;5043712;28;20140;-79
2022/01/18 07:09:24;;;;;;;10.50;3.85;;;;;;;;;;5041697;28;23561;-81
2022/01/18 07:11:54;;;;;;;10.68;4.13;;;;;;;;;;5035904;28;20096;-80
2022/01/18 07:14:20;;;;;;;15.32;6.18;;;;;;;;;;5046210;28;20031;-80
2022/01/18 07:16:46;;;;;;;18.75;7.38;;;;;;;;;;5049461;28;20043;-79
2022/01/18 07:19:12;;;;;;;18.33;6.60;;;;;;;;;;5046422;28;20033;-79
2022/01/18 07:21:38;;;;;;;25.60;7.78;;;;;;;;;;5053100;28;20094;-80
2022/01/18 07:24:06;;;;;;;23.25;8.00;;;;;;;;;;5057328;28;20033;-79
2022/01/18 07:26:33;;;;;;;19.42;7.05;;;;;;;;;;5056484;28;20028;-80
2022/01/18 07:28:59;;;;;;;21.02;7.32;;;;;;;;;;5054869;28;20048;-80
2022/01/18 07:31:25;;;;;;;23.02;7.53;;;;;;;;;;5054782;28;20035;-80
2022/01/18 07:33:51;;;;;;;19.77;7.65;;;;;;;;;;5044531;28;20021;-78
2022/01/18 07:36:17;;;;;;;26.48;9.10;;;;;;;;;;5051632;28;20062;-79
2022/01/18 07:38:43;;;;;;;22.60;9.05;;;;;;;;;;5056763;28;20033;-79
2022/01/18 07:41:09;;;;;;;39.40;10.60;;;;;;;;;;5057327;28;20063;-79
2022/01/18 07:43:38;;;;;;;22.77;7.75;;;;;;;;;;5059490;28;20051;-80
2022/01/18 07:46:04;;;;;;;17.77;6.57;;;;;;;;;;5058547;28;20047;-79
2022/01/18 07:48:30;;;;;;;19.88;7.68;;;;;;;;;;5053503;28;20033;-79
2022/01/18 07:50:58;;;;;;;20.70;7.45;;;;;;;;;;5057791;28;20033;-79
2022/01/18 07:53:24;;;;;;;25.80;8.00;;;;;;;;;;5055207;28;20037;-79
2022/01/18 07:55:51;;;;;;;21.63;7.47;;;;;;;;;;5050910;28;20556;-79
2022/01/18 07:58:17;;;;;;;21.83;5.32;;;;;;;;;;5048425;28;20139;-78
2022/01/18 08:00:43;;;;;;;18.77;6.90;;;;;;;;;;5056249;28;20033;-79
2022/01/18 08:03:10;;;;;;;17.88;7.20;;;;;;;;;;5055577;28;20036;-79
2022/01/18 08:05:36;;;;;;;19.58;6.40;;;;;;;;;;5057381;28;20090;-80
2022/01/18 08:08:04;;;;;;;18.88;7.32;;;;;;;;;;5057115;28;20021;-79
2022/01/18 08:10:30;;;;;;;21.77;6.88;;;;;;;;;;5060376;28;20064;-79
2022/01/18 08:13:01;;;;;;;20.98;6.75;;;;;;;;;;5058093;28;20844;-80
2022/01/18 08:15:29;;;;;;;13.23;5.10;;;;;;;;;;5072260;28;20362;-80
2022/01/18 08:17:57;;;;;;;17.48;5.63;;;;;;;;;;5065611;28;20028;-80
2022/01/18 08:20:23;;;;;;;21.25;7.50;;;;;;;;;;5067211;28;20029;-79
2022/01/18 08:22:49;;;;;;;21.73;6.55;;;;;;;;;;5062125;28;20029;-79
2022/01/18 08:25:17;;;;;;;17.48;5.30;;;;;;;;;;5065718;28;20127;-80
2022/01/18 08:27:43;;;;;;;15.75;5.75;;;;;;;;;;5059983;28;20017;-80
2022/01/18 08:30:10;;;;;;;17.73;7.90;;;;;;;;;;5063414;28;20189;-80
2022/01/18 08:32:36;;;;;;;21.80;5.10;;;;;;;;;;5058706;28;20032;-79
2022/01/18 08:35:03;;;;;;;17.42;6.28;;;;;;;;;;5064953;28;20056;-79
2022/01/18 08:37:29;;;;;;;11.02;4.80;;;;;;;;;;5065348;28;20092;-79
2022/01/18 08:39:55;;;;;;;23.10;6.43;;;;;;;;;;5065854;28;20052;-79
2022/01/18 08:42:21;;;;;;;16.98;5.75;;;;;;;;;;5063864;28;20058;-79
2022/01/18 08:44:47;;;;;;;16.25;4.93;;;;;;;;;;5070329;28;20098;-79
2022/01/18 08:47:13;;;;;;;19.85;5.22;;;;;;;;;;5064527;28;20088;-79
2022/01/18 08:49:39;;;;;;;13.73;6.10;;;;;;;;;;5064413;28;20041;-79
2022/01/18 08:52:06;;;;;;;16.65;5.55;;;;;;;;;;5062030;28;20025;-79
2022/01/18 08:54:32;;;;;;;21.60;6.57;;;;;;;;;;5058594;28;20233;-79
2022/01/18 08:56:58;;;;;;;18.80;6.18;;;;;;;;;;5065371;28;20028;-79
2022/01/18 08:59:24;;;;;;;17.55;6.18;;;;;;;;;;5054345;28;20028;-79
2022/01/18 09:01:51;;;;;;;14.95;5.00;;;;;;;;;;5049134;28;20056;-79
2022/01/18 09:04:17;;;;;;;28.00;7.13;;;;;;;;;;5047965;28;20073;-79
2022/01/18 09:06:46;;;;;;;19.50;6.63;;;;;;;;;;5050245;28;20037;-80
2022/01/18 09:09:15;;;;;;;17.27;5.40;;;;;;;;;;5056372;28;20029;-79
2022/01/18 09:11:41;;;;;;;10.82;4.60;;;;;;;;;;5050049;28;75744;-79
2022/01/18 09:14:07;;;;;;;18.25;6.13;;;;;;;;;;5040575;28;20041;-79
2022/01/18 09:16:33;;;;;;;14.98;4.13;;;;;;;;;;5050541;28;20254;-79
2022/01/18 09:18:59;;;;;;;9.27;4.13;;;;;;;;;;5046283;28;20572;-78
2022/01/18 09:21:26;;;;;;;16.33;5.57;;;;;;;;;;5044199;28;20033;-80
2022/01/18 09:23:52;;;;;;;15.88;4.90;;;;;;;;;;5048479;28;20028;-80
2022/01/18 09:26:18;;;;;;;12.80;5.03;;;;;;;;;;5056277;28;23477;-80
2022/01/18 09:28:44;;;;;;;13.68;4.45;;;;;;;;;;5055878;28;20029;-80
2022/01/18 09:31:10;;;;;;;17.25;6.55;;;;;;;;;;5033914;28;20063;-81
2022/01/18 09:33:37;;;;;;;13.32;4.05;;;;;;;;;;5042368;28;20139;-80
2022/01/18 09:36:03;;;;;;;8.07;3.65;;;;;;;;;;5044651;28;20035;-80
2022/01/18 09:38:29;;;;;;;17.48;4.93;;;;;;;;;;5048830;28;20075;-80
2022/01/18 09:40:55;;;;;;;15.85;5.72;;;;;;;;;;5043030;28;20028;-80
2022/01/18 09:43:21;;;;;;;13.35;4.80;;;;;;;;;;5045098;28;20119;-80
2022/01/18 09:45:47;;;;;;;13.45;5.10;;;;;;;;;;5058685;28;20120;-80
2022/01/18 09:48:14;;;;;;;14.32;4.47;;;;;;;;;;5058467;28;20079;-80
2022/01/18 09:50:41;;;;;;;11.73;3.88;;;;;;;;;;5055396;28;20044;-79
2022/01/18 09:53:09;;;;;;;10.98;4.85;;;;;;;;;;5055633;28;20093;-80
2022/01/18 09:55:36;;;;;;;9.43;3.35;;;;;;;;;;5048181;28;20029;-80
2022/01/18 09:58:04;;;;;;;15.88;3.67;;;;;;;;;;5048040;28;20028;-80
2022/01/18 10:00:31;;;;;;;11.45;5.07;;;;;;;;;;5046340;28;22172;-79
2022/01/18 10:02:58;;;;;;;13.07;4.80;;;;;;;;;;5035085;28;20028;-80
2022/01/18 10:05:28;;;;;;;14.18;4.90;;;;;;;;;;5042384;28;20064;-79
2022/01/18 10:08:05;;;;;;;16.10;4.63;;;;;;;;;;5036050;28;20071;-80
2022/01/18 10:10:39;;;;;;;12.00;3.72;;;;;;;;;;5035895;28;20045;-80
2022/01/18 10:13:05;;;;;;;10.43;3.92;;;;;;;;;;5040737;28;20036;-80
2022/01/18 10:15:31;;;;;;;19.35;5.00;;;;;;;;;;5041608;28;20025;-80
2022/01/18 10:18:05;;;;;;;10.05;3.78;;;;;;;;;;5042664;28;20654;-79
2022/01/18 10:20:31;;;;;;;12.85;4.47;;;;;;;;;;5040878;28;20387;-80
2022/01/18 10:22:57;;;;;;;13.68;4.40;;;;;;;;;;5044546;28;20040;-80
2022/01/18 10:25:23;;;;;;;11.13;3.22;;;;;;;;;;5043610;28;20048;-80
2022/01/18 10:27:51;;;;;;;7.18;3.10;;;;;;;;;;5042213;28;22296;-80
2022/01/18 10:33:09;;;;;;;9.77;2.75;;;;;;;;;;5041438;28;22705;-80
2022/01/18 10:35:35;;;;;;;8.32;3.65;;;;;;;;;;5040674;28;20032;-80
2022/01/18 10:38:01;;;;;;;6.18;2.42;;;;;;;;;;5035763;28;20122;-80
2022/01/18 10:40:27;;;;;;;6.07;2.20;;;;;;;;;;5045245;28;20032;-80
2022/01/18 10:42:54;;;;;;;6.45;2.13;;;;;;;;;;5040904;28;20047;-80
2022/01/18 10:45:27;;;;;;;11.68;3.13;;;;;;;;;;5053693;28;20040;-80
2022/01/18 10:47:57;;;;;;;10.10;3.50;;;;;;;;;;5055406;28;20040;-80
2022/01/18 10:50:23;;;;;;;10.00;3.78;;;;;;;;;;5048152;28;20093;-80
2022/01/18 10:52:52;;;;;;;7.90;2.95;;;;;;;;;;5038619;28;20297;-80
2022/01/18 10:55:25;;;;;;;8.05;2.40;;;;;;;;;;5043709;28;20040;-80
2022/01/18 10:57:51;;;;;;;6.00;2.72;;;;;;;;;;5033839;28;20037;-86
2022/01/18 11:00:22;;;;;;;9.65;3.22;;;;;;;;;;5037988;28;20024;-81
2022/01/18 11:02:57;;;;;;;5.53;2.03;;;;;;;;;;5039944;28;20046;-80
2022/01/18 11:05:25;;;;;;;8.20;2.95;;;;;;;;;;5040452;28;20040;-81
2022/01/18 11:07:51;;;;;;;9.95;3.35;;;;;;;;;;5044005;28;20029;-80
2022/01/18 11:10:19;;;;;;;7.50;3.13;;;;;;;;;;5042556;28;20028;-81
2022/01/18 11:12:47;;;;;;;8.45;3.15;;;;;;;;;;5057249;28;20025;-81
2022/01/18 11:15:20;;;;;;;17.98;5.10;;;;;;;;;;5052351;28;20063;-81
2022/01/18 11:17:51;;;;;;;;;;;;;;;;;;5053570;28;20896;-81
2022/01/18 11:20:17;;;;;;;4.53;2.03;;;;;;;;;;5058910;28;19908;-80
2022/01/18 11:22:43;;;;;;;7.63;1.90;;;;;;;;;;5051773;28;20101;-81
2022/01/18 11:25:10;;;;;;;5.60;2.05;;;;;;;;;;5046837;28;20052;-81
2022/01/18 11:27:36;;;;;;;4.22;1.80;;;;;;;;;;5042663;28;20156;-81
2022/01/18 11:30:04;;;;;;;2.63;1.20;;;;;;;;;;5020319;28;20097;-81
2022/01/18 11:32:31;;;;;;;4.38;1.48;;;;;;;;;;5032216;28;20934;-81
2022/01/18 11:35:12;;;;;;;4.55;1.10;;;;;;;;;;5038844;28;20086;-82
2022/01/18 11:37:42;;;;;;;2.88;1.08;;;;;;;;;;5036163;28;20151;-81
2022/01/18 11:40:13;;;;;;;3.28;1.40;;;;;;;;;;5041353;28;20025;-81
2022/01/18 11:42:49;;;;;;;7.30;1.10;;;;;;;;;;5037586;28;20171;-82
2022/01/18 11:45:25;;;;;;;3.58;1.58;;;;;;;;;;5035074;28;20091;-81
2022/01/18 11:48:00;;;;;;;3.00;1.58;;;;;;;;;;5039719;28;20044;-81
2022/01/18 11:50:30;;;;;;;3.05;1.50;;;;;;;;;;5026920;28;20163;-82
2022/01/18 11:53:25;;;;;;;2.28;0.80;;;;;;;;;;5036926;28;20059;-82
2022/01/18 11:55:58;;;;;;;6.70;3.30;;;;;;;;;;5032794;28;20040;-81
2022/01/18 11:58:25;;;;;;;5.07;2.20;;;;;;;;;;5041397;28;22309;-81
2022/01/18 12:00:53;;;;;;;3.53;1.30;;;;;;;;;;5041616;28;21564;-81
2022/01/18 12:03:25;;;;;;;1.83;0.88;;;;;;;;;;5039517;28;20266;-81
2022/01/18 12:05:51;;;;;;;3.28;1.17;;;;;;;;;;5054133;28;20053;-81
2022/01/18 12:08:37;;;;;;;3.22;0.93;;;;;;;;;;5057693;28;20048;-82
2022/01/18 12:11:05;;;;;;;6.80;0.80;;;;;;;;;;5055469;28;20845;-81
2022/01/18 12:13:36;;;;;;;2.15;0.70;;;;;;;;;;5051966;28;20048;-81
2022/01/18 12:16:04;;;;;;;1.67;0.80;;;;;;;;;;5055107;28;20025;-81
2022/01/18 12:18:31;;;;;;;5.88;0.93;;;;;;;;;;5057602;28;20036;-80
2022/01/18 12:20:58;;;;;;;4.03;1.55;;;;;;;;;;5051478;28;20029;-80
2022/01/18 12:23:26;;;;;;;17.48;1.98;;;;;;;;;;5051913;28;20677;-81
2022/01/18 12:26:01;;;;;;;4.50;0.88;;;;;;;;;;5067157;28;20086;-81
2022/01/18 12:28:35;;;;;;;0.55;0.45;;;;;;;;;;5070128;28;20081;-81
2022/01/18 12:31:16;;;;;;;1.55;0.35;;;;;;;;;;5054945;28;20071;-81
2022/01/18 12:33:45;;;;;;;1.75;0.70;;;;;;;;;;5056650;28;20108;-82
2022/01/18 12:36:30;;;;;;;4.55;0.40;;;;;;;;;;5054934;28;20032;-81
2022/01/18 12:38:59;;;;;;;3.42;1.15;;;;;;;;;;5059025;28;20037;-80
2022/01/18 12:41:41;;;;;;;2.80;0.63;;;;;;;;;;5044801;28;20097;-80
2022/01/18 12:44:22;;;;;;;1.60;1.20;;;;;;;;;;5047270;28;20096;-81
2022/01/18 12:46:52;;;;;;;7.22;1.48;;;;;;;;;;5056844;28;20561;-81
2022/01/18 12:49:19;;;;;;;2.65;1.27;;;;;;;;;;5049177;28;21317;-83
2022/01/18 12:51:45;;;;;;;3.08;1.10;;;;;;;;;;5046114;28;20233;-80
2022/01/18 12:54:11;;;;;;;10.45;1.95;;;;;;;;;;5053217;28;20092;-81
2022/01/18 12:56:37;;;;;;;1.75;0.52;;;;;;;;;;5055389;28;20537;-80
2022/01/18 12:59:04;;;;;;;2.33;1.40;;;;;;;;;;5048195;28;20132;-80
2022/01/18 13:01:31;;;;;;;1.05;0.30;;;;;;;;;;5053458;28;20036;-80
2022/01/18 13:03:57;;;;;;;0.77;0.20;;;;;;;;;;5052180;28;20094;-80
2022/01/18 13:06:32;;;;;;;1.17;0.52;;;;;;;;;;5052860;28;20290;-81
2022/01/18 13:08:58;;;;;;;2.40;0.30;;;;;;;;;;5050393;28;20100;-80
2022/01/18 13:11:29;;;;;;;1.05;0.50;;;;;;;;;;5051854;28;20939;-80
2022/01/18 13:14:00;;;;;;;0.35;0.30;;;;;;;;;;5052898;28;20979;-80
2022/01/18 13:27:30;;;;;;;2.97;0.50;;;;;;;;;;5046242;28;20039;-79
2022/01/18 13:30:05;;;;;;;0.80;0.30;;;;;;;;;;5039840;28;20025;-76
2022/01/18 13:32:34;;;;;;;1.33;0.52;;;;;;;;;;5051007;28;20039;-77
2022/01/18 13:35:02;;;;;;;1.23;0.55;;;;;;;;;;5052323;28;20815;-77
2022/01/18 13:37:30;;;;;;;0.95;0.45;;;;;;;;;;5047665;28;20059;-77
2022/01/18 13:40:07;;;;;;;1.67;0.55;;;;;;;;;;5041920;28;20594;-79
2022/01/18 13:42:34;;;;;;;7.85;1.83;;;;;;;;;;5052443;28;20110;-78
2022/01/18 13:45:07;;;;;;;5.95;1.52;;;;;;;;;;5050496;28;20040;-78
2022/01/18 13:47:38;;;;;;;3.03;1.50;;;;;;;;;;5051622;28;20043;-79
2022/01/18 13:50:05;;;;;;;3.05;1.08;;;;;;;;;;5054191;28;20028;-79
2022/01/18 13:52:31;;;;;;;1.25;0.57;;;;;;;;;;5056091;28;20032;-80
2022/01/18 13:54:58;;;;;;;2.47;0.40;;;;;;;;;;5053076;28;20115;-79
2022/01/18 13:57:24;;;;;;;2.25;0.75;;;;;;;;;;5053316;28;20951;-79
2022/01/18 13:59:51;;;;;;;1.77;0.73;;;;;;;;;;5055174;28;20068;-78
2022/01/18 14:02:18;;;;;;;4.75;0.95;;;;;;;;;;5051458;28;20037;-77
2022/01/18 14:04:45;;;;;;;8.70;1.65;;;;;;;;;;5062148;28;20039;-77
2022/01/18 14:07:12;;;;;;;5.72;1.02;;;;;;;;;;5052785;28;20025;-81
2022/01/18 14:09:38;;;;;;;1.85;0.68;;;;;;;;;;5051813;28;20492;-81
2022/01/18 14:12:05;;;;;;;1.75;1.20;;;;;;;;;;5045806;28;20055;-83
2022/01/18 14:14:35;;;;;;;4.38;1.17;;;;;;;;;;5042035;28;20583;-79
2022/01/18 14:17:05;;;;;;;3.00;1.00;;;;;;;;;;5049839;28;20036;-79
2022/01/18 14:19:35;;;;;;;1.95;0.90;;;;;;;;;;5042484;28;20032;-80
2022/01/18 14:22:23;;;;;;;2.25;0.75;;;;;;;;;;5055612;28;20028;-80
2022/01/18 14:24:50;;;;;;;3.20;0.50;;;;;;;;;;5045002;28;20055;-80
2022/01/18 14:27:24;;;;;;;1.48;0.90;;;;;;;;;;5050257;28;20032;-79
2022/01/18 14:29:59;;;;;;;2.22;0.80;;;;;;;;;;5044397;28;22087;-80
2022/01/18 14:32:29;;;;;;;1.83;0.85;;;;;;;;;;5050148;28;20059;-79
2022/01/18 14:34:57;;;;;;;10.27;1.88;;;;;;;;;;5051001;28;20029;-79
2022/01/18 14:37:33;;;;;;;3.10;1.35;;;;;;;;;;5054973;28;20047;-79
2022/01/18 14:40:00;;;;;;;2.50;1.08;;;;;;;;;;5048997;28;20020;-78
2022/01/18 14:42:34;;;;;;;6.22;1.80;;;;;;;;;;5035475;28;20028;-81
2022/01/18 14:45:19;;;;;;;4.15;1.02;;;;;;;;;;5041606;28;20066;-78
2022/01/18 14:47:47;;;;;;;3.35;2.10;;;;;;;;;;5044096;28;20132;-78
2022/01/18 14:50:14;;;;;;;2.65;0.80;;;;;;;;;;5044492;28;20058;-78
2022/01/18 14:52:40;;;;;;;1.65;0.70;;;;;;;;;;5050091;28;20025;-78
2022/01/18 14:55:06;;;;;;;0.82;0.47;;;;;;;;;;5049530;28;20036;-79
2022/01/18 14:57:33;;;;;;;2.38;0.63;;;;;;;;;;5040290;28;20184;-78
2022/01/18 14:59:59;;;;;;;1.20;0.47;;;;;;;;;;5031374;28;20033;-77
2022/01/18 15:02:25;;;;;;;0.63;0.38;;;;;;;;;;5046174;28;20097;-77
2022/01/18 15:04:51;;;;;;;1.58;0.50;;;;;;;;;;5046562;28;20037;-77
2022/01/18 15:07:17;;;;;;;0.38;0.20;;;;;;;;;;5043789;28;20032;-78
2022/01/18 15:09:44;;;;;;;0.85;0.40;;;;;;;;;;5044252;28;20051;-78
2022/01/18 15:12:10;;;;;;;0.40;0.30;;;;;;;;;;5046449;28;20424;-78
2022/01/18 15:14:36;;;;;;;11.85;1.63;;;;;;;;;;5046713;28;20492;-78
2022/01/18 15:17:02;;;;;;;7.78;2.08;;;;;;;;;;5039939;28;20403;-78
2022/01/18 15:19:28;;;;;;;7.55;2.13;;;;;;;;;;5040763;28;20220;-78
2022/01/18 15:21:54;;;;;;;6.78;2.03;;;;;;;;;;5046607;28;22111;-78
2022/01/18 15:24:20;;;;;;;5.18;1.35;;;;;;;;;;5041340;28;20020;-77
2022/01/18 15:26:46;;;;;;;1.52;0.47;;;;;;;;;;5037589;28;20068;-76
2022/01/18 15:29:12;;;;;;;1.58;0.40;;;;;;;;;;5045032;28;20028;-78
2022/01/18 15:31:38;;;;;;;4.93;0.40;;;;;;;;;;5042141;28;22114;-79
2022/01/18 15:34:05;;;;;;;6.78;2.53;;;;;;;;;;5049228;28;20133;-79
2022/01/18 15:36:31;;;;;;;7.50;1.70;;;;;;;;;;5053547;28;20508;-79
2022/01/18 15:38:57;;;;;;;4.28;1.23;;;;;;;;;;5048696;28;20029;-79
2022/01/18 15:41:23;;;;;;;2.80;1.10;;;;;;;;;;5044083;28;20127;-79
2022/01/18 15:43:50;;;;;;;6.25;0.70;;;;;;;;;;5052901;28;20039;-80